Airfield :
LOGIN :

Register | Disclaimer

   EN    FR    IT 

 










Legend :    VFR   Marginal VFR   IFR   Intensive IFR   Very Intensive IFR
Visi :
Ceiling :
>= 8 km
>= 3000ft
5 to 8 km
1000 to 3000 ft
1500m to 5 km
500 to 1000 ft
800 to 1500m
200 to 500 ft
< 800m
< 200 ft
Symbols :   Thunderstorms  Fog  Heavy snow  Heavy precipitations  Wind > 20 kt
SIGMETs :     Misc.  Thunderstorms  Icing  Turbulence  Mountain Waves  Volcanic Ashes






- Airport Elevation : 287 ft


LFRL - Lanveoc Poulmic

CURRENT METAR :
  • 301430Z AUTO 10009KT CAVOK 07/05 Q1021 BECMG OVC012

EXPIRED METARs :
  • 301400Z AUTO 11008KT 9999 FEW011 08/05 Q1021 NOSIG
  • 301330Z AUTO 14006KT 100V160 9999 FEW010 09/06 Q1021 NOSIG
  • 301300Z AUTO 16006KT 130V200 CAVOK 09/06 Q1022 NOSIG
  • 301230Z AUTO 15008KT 120V190 CAVOK 09/06 Q1021 NOSIG
  • 301200Z AUTO 15007KT 110V180 CAVOK 10/06 Q1021 NOSIG

TAF TAF LFRL
Valid from the 30 at 12:00 until the 01 at 12:00 UTC


301100Z 3012/0112 10006KT 9999 SCT040
BECMG 3016/3018 OVC012
BECMG 3022/3024 CAVOK
TEMPO 0101/0104 SCT006
PROB30
TEMPO 0104/0109 4000 BR



MET'MAP, your aeronautical weather chart ! - Copyright ORBIFLY December 2007 - Disclaimer

ORBIFLY MET'MAP TEAM :

Programming & Development : Alexandra Zaïnal
Original concept : Baudouin d'Aumeries
Technical & hardware support : Manuel Goepfert
Assistance : Marc-Olivier Méhu




SOURCES & CREDITS :

   NOAA